sensor_id;sensor_type;location;lat;lon;timestamp;P1;durP1;ratioP1;P2;durP2;ratioP2
52248;SDS011;38541;48.130;8.378;2022-10-17T00:01:27;3.30;;;2.17;;
52248;SDS011;38541;48.130;8.378;2022-10-17T00:03:53;2.60;;;2.40;;
52248;SDS011;38541;48.130;8.378;2022-10-17T00:06:20;3.53;;;2.22;;
52248;SDS011;38541;48.130;8.378;2022-10-17T00:08:46;4.72;;;2.30;;
52248;SDS011;38541;48.130;8.378;2022-10-17T00:11:15;2.85;;;2.53;;
52248;SDS011;38541;48.130;8.378;2022-10-17T00:13:44;7.15;;;2.05;;
52248;SDS011;38541;48.130;8.378;2022-10-17T00:16:11;4.22;;;2.88;;
52248;SDS011;38541;48.130;8.378;2022-10-17T00:18:38;5.68;;;2.35;;
52248;SDS011;38541;48.130;8.378;2022-10-17T00:21:05;5.88;;;1.80;;
52248;SDS011;38541;48.130;8.378;2022-10-17T00:23:32;2.10;;;1.88;;
52248;SDS011;38541;48.130;8.378;2022-10-17T00:26:03;2.75;;;1.80;;
52248;SDS011;38541;48.130;8.378;2022-10-17T00:28:31;3.10;;;1.98;;
52248;SDS011;38541;48.130;8.378;2022-10-17T00:30:58;2.22;;;2.03;;
52248;SDS011;38541;48.130;8.378;2022-10-17T00:33:27;3.17;;;2.22;;
52248;SDS011;38541;48.130;8.378;2022-10-17T00:36:04;2.13;;;1.77;;
52248;SDS011;38541;48.130;8.378;2022-10-17T00:38:34;4.00;;;2.08;;
52248;SDS011;38541;48.130;8.378;2022-10-17T00:41:01;2.25;;;2.08;;
52248;SDS011;38541;48.130;8.378;2022-10-17T00:43:29;3.50;;;2.20;;
52248;SDS011;38541;48.130;8.378;2022-10-17T00:46:14;2.53;;;2.10;;
52248;SDS011;38541;48.130;8.378;2022-10-17T00:48:40;2.65;;;2.28;;
52248;SDS011;38541;48.130;8.378;2022-10-17T00:51:07;3.00;;;2.33;;
52248;SDS011;38541;48.130;8.378;2022-10-17T00:53:34;3.15;;;2.20;;
52248;SDS011;38541;48.130;8.378;2022-10-17T00:56:04;3.60;;;2.80;;
52248;SDS011;38541;48.130;8.378;2022-10-17T00:58:31;4.78;;;2.15;;
52248;SDS011;38541;48.130;8.378;2022-10-17T01:00:58;3.80;;;2.45;;
52248;SDS011;38541;48.130;8.378;2022-10-17T01:03:24;4.28;;;2.88;;
52248;SDS011;38541;48.130;8.378;2022-10-17T01:05:51;4.43;;;2.50;;
52248;SDS011;38541;48.130;8.378;2022-10-17T01:08:18;3.28;;;2.65;;
52248;SDS011;38541;48.130;8.378;2022-10-17T01:10:57;3.80;;;2.42;;
52248;SDS011;38541;48.130;8.378;2022-10-17T01:13:38;2.60;;;2.40;;
52248;SDS011;38541;48.130;8.378;2022-10-17T01:16:13;2.53;;;2.20;;
52248;SDS011;38541;48.130;8.378;2022-10-17T01:22:08;3.38;;;1.90;;
52248;SDS011;38541;48.130;8.378;2022-10-17T01:27:42;2.13;;;2.00;;
52248;SDS011;38541;48.130;8.378;2022-10-17T01:30:22;2.85;;;2.10;;
52248;SDS011;38541;48.130;8.378;2022-10-17T01:33:08;2.47;;;2.28;;
52248;SDS011;38541;48.130;8.378;2022-10-17T01:38:35;5.05;;;2.40;;
52248;SDS011;38541;48.130;8.378;2022-10-17T01:46:37;2.80;;;2.50;;
52248;SDS011;38541;48.130;8.378;2022-10-17T01:49:05;3.97;;;2.20;;
52248;SDS011;38541;48.130;8.378;2022-10-17T01:51:36;2.30;;;2.10;;
52248;SDS011;38541;48.130;8.378;2022-10-17T01:54:13;4.13;;;2.50;;
52248;SDS011;38541;48.130;8.378;2022-10-17T01:56:41;2.92;;;2.53;;
52248;SDS011;38541;48.130;8.378;2022-10-17T01:59:14;4.50;;;2.17;;
52248;SDS011;38541;48.130;8.378;2022-10-17T02:01:46;2.75;;;2.10;;
52248;SDS011;38541;48.130;8.378;2022-10-17T02:04:16;5.15;;;2.40;;
52248;SDS011;38541;48.130;8.378;2022-10-17T02:06:42;3.22;;;2.25;;
52248;SDS011;38541;48.130;8.378;2022-10-17T02:14:39;2.60;;;2.15;;
52248;SDS011;38541;48.130;8.378;2022-10-17T02:17:41;2.35;;;2.03;;
52248;SDS011;38541;48.130;8.378;2022-10-17T02:20:14;3.15;;;2.53;;
52248;SDS011;38541;48.130;8.378;2022-10-17T02:28:41;2.47;;;1.85;;
52248;SDS011;38541;48.130;8.378;2022-10-17T02:31:20;2.58;;;1.95;;
52248;SDS011;38541;48.130;8.378;2022-10-17T02:33:55;1.85;;;1.75;;
52248;SDS011;38541;48.130;8.378;2022-10-17T02:39:02;1.88;;;1.77;;
52248;SDS011;38541;48.130;8.378;2022-10-17T02:41:32;3.25;;;2.60;;
52248;SDS011;38541;48.130;8.378;2022-10-17T02:44:00;3.20;;;1.92;;
52248;SDS011;38541;48.130;8.378;2022-10-17T02:46:28;3.08;;;2.60;;
52248;SDS011;38541;48.130;8.378;2022-10-17T02:51:31;3.00;;;1.80;;
52248;SDS011;38541;48.130;8.378;2022-10-17T02:54:16;5.30;;;2.10;;
52248;SDS011;38541;48.130;8.378;2022-10-17T02:56:52;2.40;;;2.03;;
52248;SDS011;38541;48.130;8.378;2022-10-17T02:59:23;1.73;;;1.60;;
52248;SDS011;38541;48.130;8.378;2022-10-17T03:01:53;2.20;;;2.10;;
52248;SDS011;38541;48.130;8.378;2022-10-17T03:04:20;5.07;;;2.08;;
52248;SDS011;38541;48.130;8.378;2022-10-17T03:06:47;5.55;;;2.47;;
52248;SDS011;38541;48.130;8.378;2022-10-17T03:09:14;2.83;;;2.47;;
52248;SDS011;38541;48.130;8.378;2022-10-17T03:11:41;2.85;;;1.88;;
52248;SDS011;38541;48.130;8.378;2022-10-17T03:14:07;3.50;;;2.13;;
52248;SDS011;38541;48.130;8.378;2022-10-17T03:16:34;1.98;;;1.63;;
52248;SDS011;38541;48.130;8.378;2022-10-17T03:19:02;2.88;;;2.30;;
52248;SDS011;38541;48.130;8.378;2022-10-17T03:21:30;1.60;;;1.50;;
52248;SDS011;38541;48.130;8.378;2022-10-17T03:23:56;2.30;;;1.85;;
52248;SDS011;38541;48.130;8.378;2022-10-17T03:26:23;2.80;;;2.28;;
52248;SDS011;38541;48.130;8.378;2022-10-17T03:28:50;2.63;;;1.60;;
52248;SDS011;38541;48.130;8.378;2022-10-17T03:31:20;3.40;;;1.90;;
52248;SDS011;38541;48.130;8.378;2022-10-17T03:33:48;2.35;;;1.83;;
52248;SDS011;38541;48.130;8.378;2022-10-17T03:36:15;2.88;;;2.00;;
52248;SDS011;38541;48.130;8.378;2022-10-17T03:38:45;2.75;;;1.77;;
52248;SDS011;38541;48.130;8.378;2022-10-17T03:41:12;1.98;;;1.80;;
52248;SDS011;38541;48.130;8.378;2022-10-17T03:43:39;2.88;;;1.90;;
52248;SDS011;38541;48.130;8.378;2022-10-17T03:46:06;2.20;;;2.00;;
52248;SDS011;38541;48.130;8.378;2022-10-17T03:48:34;1.92;;;1.83;;
52248;SDS011;38541;48.130;8.378;2022-10-17T03:51:06;3.50;;;2.10;;
52248;SDS011;38541;48.130;8.378;2022-10-17T03:53:40;3.33;;;2.08;;
52248;SDS011;38541;48.130;8.378;2022-10-17T03:56:08;2.92;;;2.60;;
52248;SDS011;38541;48.130;8.378;2022-10-17T03:58:35;3.55;;;2.15;;
52248;SDS011;38541;48.130;8.378;2022-10-17T04:01:03;2.42;;;2.22;;
52248;SDS011;38541;48.130;8.378;2022-10-17T04:03:30;3.90;;;2.60;;
52248;SDS011;38541;48.130;8.378;2022-10-17T04:06:01;2.47;;;2.28;;
52248;SDS011;38541;48.130;8.378;2022-10-17T04:08:30;2.95;;;2.20;;
52248;SDS011;38541;48.130;8.378;2022-10-17T04:11:08;2.20;;;2.10;;
52248;SDS011;38541;48.130;8.378;2022-10-17T04:13:36;2.67;;;2.47;;
52248;SDS011;38541;48.130;8.378;2022-10-17T04:16:04;2.45;;;2.25;;
52248;SDS011;38541;48.130;8.378;2022-10-17T04:18:35;2.10;;;1.90;;
52248;SDS011;38541;48.130;8.378;2022-10-17T04:21:02;4.07;;;2.53;;
52248;SDS011;38541;48.130;8.378;2022-10-17T04:23:30;2.70;;;1.75;;
52248;SDS011;38541;48.130;8.378;2022-10-17T04:26:03;2.08;;;1.88;;
52248;SDS011;38541;48.130;8.378;2022-10-17T04:28:31;13.15;;;2.58;;
52248;SDS011;38541;48.130;8.378;2022-10-17T04:30:59;2.10;;;2.00;;
52248;SDS011;38541;48.130;8.378;2022-10-17T04:33:33;6.18;;;3.00;;
52248;SDS011;38541;48.130;8.378;2022-10-17T04:36:02;2.92;;;2.50;;
52248;SDS011;38541;48.130;8.378;2022-10-17T04:38:33;3.15;;;2.70;;
52248;SDS011;38541;48.130;8.378;2022-10-17T04:41:01;2.65;;;2.45;;
52248;SDS011;38541;48.130;8.378;2022-10-17T04:43:34;4.53;;;2.70;;
52248;SDS011;38541;48.130;8.378;2022-10-17T04:46:03;4.65;;;4.25;;
52248;SDS011;38541;48.130;8.378;2022-10-17T04:48:31;6.00;;;4.65;;
52248;SDS011;38541;48.130;8.378;2022-10-17T04:50:59;4.28;;;3.00;;
52248;SDS011;38541;48.130;8.378;2022-10-17T04:53:36;2.85;;;2.58;;
52248;SDS011;38541;48.130;8.378;2022-10-17T04:56:10;3.30;;;2.92;;
52248;SDS011;38541;48.130;8.378;2022-10-17T04:58:39;3.10;;;2.58;;
52248;SDS011;38541;48.130;8.378;2022-10-17T05:01:09;7.43;;;2.95;;
52248;SDS011;38541;48.130;8.378;2022-10-17T05:03:40;4.68;;;3.38;;
52248;SDS011;38541;48.130;8.378;2022-10-17T05:06:08;5.10;;;3.20;;
52248;SDS011;38541;48.130;8.378;2022-10-17T05:08:37;3.50;;;2.08;;
52248;SDS011;38541;48.130;8.378;2022-10-17T05:11:05;2.22;;;2.00;;
52248;SDS011;38541;48.130;8.378;2022-10-17T05:13:41;2.83;;;2.35;;
52248;SDS011;38541;48.130;8.378;2022-10-17T05:16:08;3.60;;;2.38;;
52248;SDS011;38541;48.130;8.378;2022-10-17T05:18:35;5.10;;;1.98;;
52248;SDS011;38541;48.130;8.378;2022-10-17T05:21:02;3.10;;;2.20;;
52248;SDS011;38541;48.130;8.378;2022-10-17T05:23:29;4.40;;;3.30;;
52248;SDS011;38541;48.130;8.378;2022-10-17T05:25:57;5.53;;;2.35;;
52248;SDS011;38541;48.130;8.378;2022-10-17T05:28:25;5.15;;;2.97;;
52248;SDS011;38541;48.130;8.378;2022-10-17T05:30:56;3.65;;;3.33;;
52248;SDS011;38541;48.130;8.378;2022-10-17T05:33:23;4.15;;;2.30;;
52248;SDS011;38541;48.130;8.378;2022-10-17T05:35:50;2.40;;;2.20;;
52248;SDS011;38541;48.130;8.378;2022-10-17T05:38:17;3.30;;;2.78;;
52248;SDS011;38541;48.130;8.378;2022-10-17T05:40:45;5.32;;;2.50;;
52248;SDS011;38541;48.130;8.378;2022-10-17T05:43:12;3.22;;;2.80;;
52248;SDS011;38541;48.130;8.378;2022-10-17T05:45:42;4.38;;;2.35;;
52248;SDS011;38541;48.130;8.378;2022-10-17T05:48:15;5.80;;;2.25;;
52248;SDS011;38541;48.130;8.378;2022-10-17T05:50:42;2.58;;;2.38;;
52248;SDS011;38541;48.130;8.378;2022-10-17T05:53:13;4.40;;;3.13;;
52248;SDS011;38541;48.130;8.378;2022-10-17T05:55:54;2.92;;;2.58;;
52248;SDS011;38541;48.130;8.378;2022-10-17T05:58:24;4.75;;;2.67;;
52248;SDS011;38541;48.130;8.378;2022-10-17T06:01:23;2.65;;;1.88;;
52248;SDS011;38541;48.130;8.378;2022-10-17T06:03:50;5.53;;;2.85;;
52248;SDS011;38541;48.130;8.378;2022-10-17T06:06:17;5.88;;;2.75;;
52248;SDS011;38541;48.130;8.378;2022-10-17T06:08:46;2.47;;;2.28;;
52248;SDS011;38541;48.130;8.378;2022-10-17T06:11:20;3.05;;;2.00;;
52248;SDS011;38541;48.130;8.378;2022-10-17T06:13:47;7.20;;;2.08;;
52248;SDS011;38541;48.130;8.378;2022-10-17T06:16:19;3.38;;;2.70;;
52248;SDS011;38541;48.130;8.378;2022-10-17T06:18:47;2.70;;;2.50;;
52248;SDS011;38541;48.130;8.378;2022-10-17T06:21:20;2.13;;;1.92;;
52248;SDS011;38541;48.130;8.378;2022-10-17T06:23:51;2.95;;;2.45;;
52248;SDS011;38541;48.130;8.378;2022-10-17T06:26:24;2.35;;;1.80;;
52248;SDS011;38541;48.130;8.378;2022-10-17T06:28:52;4.00;;;2.17;;
52248;SDS011;38541;48.130;8.378;2022-10-17T06:31:19;4.20;;;3.00;;
52248;SDS011;38541;48.130;8.378;2022-10-17T06:33:46;3.67;;;2.30;;
52248;SDS011;38541;48.130;8.378;2022-10-17T06:36:13;7.47;;;4.38;;
52248;SDS011;38541;48.130;8.378;2022-10-17T06:38:41;9.18;;;4.65;;
52248;SDS011;38541;48.130;8.378;2022-10-17T06:41:16;8.50;;;3.38;;
52248;SDS011;38541;48.130;8.378;2022-10-17T06:43:45;7.32;;;3.40;;
52248;SDS011;38541;48.130;8.378;2022-10-17T06:46:36;2.60;;;2.40;;
52248;SDS011;38541;48.130;8.378;2022-10-17T06:49:05;2.55;;;2.30;;
52248;SDS011;38541;48.130;8.378;2022-10-17T06:51:41;3.30;;;2.58;;
52248;SDS011;38541;48.130;8.378;2022-10-17T06:54:10;3.90;;;2.90;;
52248;SDS011;38541;48.130;8.378;2022-10-17T06:56:49;3.28;;;2.63;;
52248;SDS011;38541;48.130;8.378;2022-10-17T06:59:34;6.65;;;2.42;;
52248;SDS011;38541;48.130;8.378;2022-10-17T07:02:16;3.05;;;2.75;;
52248;SDS011;38541;48.130;8.378;2022-10-17T07:04:44;4.78;;;2.95;;
52248;SDS011;38541;48.130;8.378;2022-10-17T07:07:11;3.30;;;3.00;;
52248;SDS011;38541;48.130;8.378;2022-10-17T07:09:38;3.60;;;2.90;;
52248;SDS011;38541;48.130;8.378;2022-10-17T07:12:04;3.00;;;2.50;;
52248;SDS011;38541;48.130;8.378;2022-10-17T07:14:34;3.00;;;2.60;;
52248;SDS011;38541;48.130;8.378;2022-10-17T07:17:00;3.45;;;3.15;;
52248;SDS011;38541;48.130;8.378;2022-10-17T07:19:30;4.38;;;3.03;;
52248;SDS011;38541;48.130;8.378;2022-10-17T07:21:56;5.47;;;2.97;;
52248;SDS011;38541;48.130;8.378;2022-10-17T07:24:23;5.90;;;4.20;;
52248;SDS011;38541;48.130;8.378;2022-10-17T07:26:56;5.82;;;3.35;;
52248;SDS011;38541;48.130;8.378;2022-10-17T07:29:23;9.85;;;3.95;;
52248;SDS011;38541;48.130;8.378;2022-10-17T07:32:02;4.22;;;3.28;;
52248;SDS011;38541;48.130;8.378;2022-10-17T07:34:32;8.73;;;3.63;;
52248;SDS011;38541;48.130;8.378;2022-10-17T07:36:59;4.72;;;3.88;;
52248;SDS011;38541;48.130;8.378;2022-10-17T07:39:26;4.15;;;3.60;;
52248;SDS011;38541;48.130;8.378;2022-10-17T07:41:53;5.03;;;3.45;;
52248;SDS011;38541;48.130;8.378;2022-10-17T07:44:21;8.45;;;4.20;;
52248;SDS011;38541;48.130;8.378;2022-10-17T07:46:50;8.25;;;4.85;;
52248;SDS011;38541;48.130;8.378;2022-10-17T07:49:17;8.57;;;5.03;;
52248;SDS011;38541;48.130;8.378;2022-10-17T07:51:44;6.43;;;4.22;;
52248;SDS011;38541;48.130;8.378;2022-10-17T07:54:15;9.95;;;4.88;;
52248;SDS011;38541;48.130;8.378;2022-10-17T07:56:42;5.97;;;3.92;;
52248;SDS011;38541;48.130;8.378;2022-10-17T07:59:08;6.88;;;4.00;;
52248;SDS011;38541;48.130;8.378;2022-10-17T08:01:35;10.02;;;3.90;;
52248;SDS011;38541;48.130;8.378;2022-10-17T08:04:02;5.00;;;3.20;;
52248;SDS011;38541;48.130;8.378;2022-10-17T08:06:28;7.05;;;5.38;;
52248;SDS011;38541;48.130;8.378;2022-10-17T08:08:55;8.63;;;6.03;;
52248;SDS011;38541;48.130;8.378;2022-10-17T08:11:23;6.32;;;4.75;;
52248;SDS011;38541;48.130;8.378;2022-10-17T08:13:50;5.68;;;3.85;;
52248;SDS011;38541;48.130;8.378;2022-10-17T08:16:16;5.47;;;4.05;;
52248;SDS011;38541;48.130;8.378;2022-10-17T08:18:43;5.60;;;4.00;;
52248;SDS011;38541;48.130;8.378;2022-10-17T08:21:10;7.30;;;3.97;;
52248;SDS011;38541;48.130;8.378;2022-10-17T08:23:38;4.47;;;3.25;;
52248;SDS011;38541;48.130;8.378;2022-10-17T08:26:06;5.75;;;2.85;;
52248;SDS011;38541;48.130;8.378;2022-10-17T08:28:36;3.53;;;3.20;;
52248;SDS011;38541;48.130;8.378;2022-10-17T08:31:04;3.03;;;2.72;;
52248;SDS011;38541;48.130;8.378;2022-10-17T08:33:32;3.58;;;3.08;;
52248;SDS011;38541;48.130;8.378;2022-10-17T08:36:00;3.72;;;2.90;;
52248;SDS011;38541;48.130;8.378;2022-10-17T08:38:27;3.38;;;2.25;;
52248;SDS011;38541;48.130;8.378;2022-10-17T08:41:01;3.55;;;2.67;;
52248;SDS011;38541;48.130;8.378;2022-10-17T08:46:21;3.70;;;2.97;;
52248;SDS011;38541;48.130;8.378;2022-10-17T08:48:48;2.90;;;2.70;;
52248;SDS011;38541;48.130;8.378;2022-10-17T08:51:20;3.30;;;3.00;;
52248;SDS011;38541;48.130;8.378;2022-10-17T08:53:54;5.28;;;2.47;;
52248;SDS011;38541;48.130;8.378;2022-10-17T08:56:32;3.10;;;2.70;;
52248;SDS011;38541;48.130;8.378;2022-10-17T08:59:15;4.38;;;2.47;;
52248;SDS011;38541;48.130;8.378;2022-10-17T09:01:48;3.20;;;2.47;;
52248;SDS011;38541;48.130;8.378;2022-10-17T09:07:18;3.47;;;2.95;;
52248;SDS011;38541;48.130;8.378;2022-10-17T09:13:13;2.53;;;2.33;;
52248;SDS011;38541;48.130;8.378;2022-10-17T09:18:56;1.67;;;1.58;;
52248;SDS011;38541;48.130;8.378;2022-10-17T09:21:43;2.42;;;1.95;;
52248;SDS011;38541;48.130;8.378;2022-10-17T09:24:16;2.65;;;1.42;;
52248;SDS011;38541;48.130;8.378;2022-10-17T09:26:50;1.98;;;1.88;;
52248;SDS011;38541;48.130;8.378;2022-10-17T09:29:20;1.70;;;1.60;;
52248;SDS011;38541;48.130;8.378;2022-10-17T09:31:57;1.58;;;1.48;;
52248;SDS011;38541;48.130;8.378;2022-10-17T09:34:28;2.28;;;1.75;;
52248;SDS011;38541;48.130;8.378;2022-10-17T09:36:58;4.82;;;2.08;;
52248;SDS011;38541;48.130;8.378;2022-10-17T09:39:26;2.00;;;1.77;;
52248;SDS011;38541;48.130;8.378;2022-10-17T09:41:58;1.88;;;1.52;;
52248;SDS011;38541;48.130;8.378;2022-10-17T09:44:30;1.67;;;1.55;;
52248;SDS011;38541;48.130;8.378;2022-10-17T09:47:14;2.85;;;1.52;;
52248;SDS011;38541;48.130;8.378;2022-10-17T09:49:50;1.70;;;1.30;;
52248;SDS011;38541;48.130;8.378;2022-10-17T09:52:21;2.08;;;1.60;;
52248;SDS011;38541;48.130;8.378;2022-10-17T09:55:16;1.92;;;1.50;;
52248;SDS011;38541;48.130;8.378;2022-10-17T09:57:57;2.88;;;1.38;;
52248;SDS011;38541;48.130;8.378;2022-10-17T10:00:29;2.47;;;1.50;;
52248;SDS011;38541;48.130;8.378;2022-10-17T10:03:07;1.60;;;1.48;;
52248;SDS011;38541;48.130;8.378;2022-10-17T10:05:35;3.50;;;1.55;;
52248;SDS011;38541;48.130;8.378;2022-10-17T10:08:03;4.50;;;1.40;;
52248;SDS011;38541;48.130;8.378;2022-10-17T10:10:31;2.72;;;1.55;;
52248;SDS011;38541;48.130;8.378;2022-10-17T10:15:41;2.80;;;1.10;;
52248;SDS011;38541;48.130;8.378;2022-10-17T10:18:26;1.83;;;1.40;;
52248;SDS011;38541;48.130;8.378;2022-10-17T10:21:04;2.03;;;1.67;;
52248;SDS011;38541;48.130;8.378;2022-10-17T10:23:33;2.35;;;1.00;;
52248;SDS011;38541;48.130;8.378;2022-10-17T10:31:37;3.00;;;1.17;;
52248;SDS011;38541;48.130;8.378;2022-10-17T10:42:37;1.85;;;1.30;;
52248;SDS011;38541;48.130;8.378;2022-10-17T10:48:18;2.00;;;0.82;;
52248;SDS011;38541;48.130;8.378;2022-10-17T10:50:47;1.85;;;1.13;;
52248;SDS011;38541;48.130;8.378;2022-10-17T10:53:24;1.92;;;0.95;;
52248;SDS011;38541;48.130;8.378;2022-10-17T10:56:17;1.48;;;1.10;;
52248;SDS011;38541;48.130;8.378;2022-10-17T10:59:02;0.60;;;0.60;;
52248;SDS011;38541;48.130;8.378;2022-10-17T11:01:45;2.50;;;1.00;;
52248;SDS011;38541;48.130;8.378;2022-10-17T11:07:19;1.08;;;0.93;;
52248;SDS011;38541;48.130;8.378;2022-10-17T11:10:02;3.42;;;0.80;;
52248;SDS011;38541;48.130;8.378;2022-10-17T11:24:06;2.47;;;1.10;;
52248;SDS011;38541;48.130;8.378;2022-10-17T11:26:41;1.10;;;1.00;;
52248;SDS011;38541;48.130;8.378;2022-10-17T11:29:19;1.00;;;0.90;;
52248;SDS011;38541;48.130;8.378;2022-10-17T11:31:51;3.40;;;1.30;;
52248;SDS011;38541;48.130;8.378;2022-10-17T11:34:22;18.00;;;1.80;;
52248;SDS011;38541;48.130;8.378;2022-10-17T11:36:53;2.50;;;0.80;;
52248;SDS011;38541;48.130;8.378;2022-10-17T11:39:29;3.90;;;1.23;;
52248;SDS011;38541;48.130;8.378;2022-10-17T11:42:05;3.55;;;1.30;;
52248;SDS011;38541;48.130;8.378;2022-10-17T11:44:40;2.28;;;0.77;;
52248;SDS011;38541;48.130;8.378;2022-10-17T11:55:40;2.38;;;1.00;;
52248;SDS011;38541;48.130;8.378;2022-10-17T12:01:08;1.83;;;1.40;;
52248;SDS011;38541;48.130;8.378;2022-10-17T12:09:10;2.85;;;0.98;;
52248;SDS011;38541;48.130;8.378;2022-10-17T12:11:58;2.45;;;1.05;;
52248;SDS011;38541;48.130;8.378;2022-10-17T12:14:38;1.50;;;1.00;;
52248;SDS011;38541;48.130;8.378;2022-10-17T12:19:50;1.60;;;1.23;;
52248;SDS011;38541;48.130;8.378;2022-10-17T12:22:18;1.88;;;1.10;;
52248;SDS011;38541;48.130;8.378;2022-10-17T12:30:02;2.78;;;1.30;;
52248;SDS011;38541;48.130;8.378;2022-10-17T12:35:34;2.10;;;1.25;;
52248;SDS011;38541;48.130;8.378;2022-10-17T12:40:49;1.73;;;1.00;;
52248;SDS011;38541;48.130;8.378;2022-10-17T12:51:03;1.88;;;0.90;;
52248;SDS011;38541;48.130;8.378;2022-10-17T12:56:41;1.27;;;0.90;;
52248;SDS011;38541;48.130;8.378;2022-10-17T12:59:13;1.13;;;0.70;;
52248;SDS011;38541;48.130;8.378;2022-10-17T13:01:44;0.90;;;0.63;;
52248;SDS011;38541;48.130;8.378;2022-10-17T13:04:13;0.60;;;0.60;;
52248;SDS011;38541;48.130;8.378;2022-10-17T13:06:45;0.70;;;0.70;;
52248;SDS011;38541;48.130;8.378;2022-10-17T13:09:32;3.33;;;0.93;;
52248;SDS011;38541;48.130;8.378;2022-10-17T13:12:03;0.70;;;0.70;;
52248;SDS011;38541;48.130;8.378;2022-10-17T13:14:36;0.63;;;0.63;;
52248;SDS011;38541;48.130;8.378;2022-10-17T13:17:06;0.82;;;0.70;;
52248;SDS011;38541;48.130;8.378;2022-10-17T13:19:45;1.60;;;0.82;;
52248;SDS011;38541;48.130;8.378;2022-10-17T13:22:14;1.33;;;0.73;;
52248;SDS011;38541;48.130;8.378;2022-10-17T13:24:43;0.60;;;0.60;;
52248;SDS011;38541;48.130;8.378;2022-10-17T13:32:25;0.50;;;0.50;;
52248;SDS011;38541;48.130;8.378;2022-10-17T13:35:21;3.35;;;1.10;;
52248;SDS011;38541;48.130;8.378;2022-10-17T13:38:12;3.25;;;1.02;;
52248;SDS011;38541;48.130;8.378;2022-10-17T13:40:40;0.50;;;0.50;;
52248;SDS011;38541;48.130;8.378;2022-10-17T13:43:16;0.93;;;0.75;;
52248;SDS011;38541;48.130;8.378;2022-10-17T13:45:52;1.38;;;0.68;;
52248;SDS011;38541;48.130;8.378;2022-10-17T13:48:25;0.55;;;0.50;;
52248;SDS011;38541;48.130;8.378;2022-10-17T13:50:57;1.13;;;0.60;;
52248;SDS011;38541;48.130;8.378;2022-10-17T13:55:59;1.08;;;0.70;;
52248;SDS011;38541;48.130;8.378;2022-10-17T13:58:51;0.85;;;0.70;;
52248;SDS011;38541;48.130;8.378;2022-10-17T14:01:21;0.85;;;0.85;;
52248;SDS011;38541;48.130;8.378;2022-10-17T14:03:49;2.60;;;2.08;;
52248;SDS011;38541;48.130;8.378;2022-10-17T14:06:33;1.40;;;1.10;;
52248;SDS011;38541;48.130;8.378;2022-10-17T14:09:00;4.53;;;0.90;;
52248;SDS011;38541;48.130;8.378;2022-10-17T14:11:34;0.82;;;0.80;;
52248;SDS011;38541;48.130;8.378;2022-10-17T14:14:06;2.53;;;1.00;;
52248;SDS011;38541;48.130;8.378;2022-10-17T14:16:43;0.68;;;0.68;;
52248;SDS011;38541;48.130;8.378;2022-10-17T14:22:14;0.57;;;0.57;;
52248;SDS011;38541;48.130;8.378;2022-10-17T14:24:44;1.17;;;0.73;;
52248;SDS011;38541;48.130;8.378;2022-10-17T14:30:01;0.73;;;0.70;;
52248;SDS011;38541;48.130;8.378;2022-10-17T14:32:31;0.85;;;0.82;;
52248;SDS011;38541;48.130;8.378;2022-10-17T14:35:01;0.80;;;0.80;;
52248;SDS011;38541;48.130;8.378;2022-10-17T14:37:51;0.80;;;0.80;;
52248;SDS011;38541;48.130;8.378;2022-10-17T14:40:20;2.83;;;0.60;;
52248;SDS011;38541;48.130;8.378;2022-10-17T14:42:52;0.93;;;0.75;;
52248;SDS011;38541;48.130;8.378;2022-10-17T14:45:26;0.70;;;0.70;;
52248;SDS011;38541;48.130;8.378;2022-10-17T14:47:55;0.60;;;0.60;;
52248;SDS011;38541;48.130;8.378;2022-10-17T14:50:27;1.05;;;0.95;;
52248;SDS011;38541;48.130;8.378;2022-10-17T14:55:38;2.75;;;0.77;;
52248;SDS011;38541;48.130;8.378;2022-10-17T14:58:24;0.93;;;0.90;;
52248;SDS011;38541;48.130;8.378;2022-10-17T15:00:53;0.77;;;0.70;;
52248;SDS011;38541;48.130;8.378;2022-10-17T15:03:21;0.93;;;0.80;;
52248;SDS011;38541;48.130;8.378;2022-10-17T15:05:48;1.98;;;1.10;;
52248;SDS011;38541;48.130;8.378;2022-10-17T15:08:16;1.48;;;0.70;;
52248;SDS011;38541;48.130;8.378;2022-10-17T15:10:45;0.70;;;0.70;;
52248;SDS011;38541;48.130;8.378;2022-10-17T15:13:13;2.22;;;1.00;;
52248;SDS011;38541;48.130;8.378;2022-10-17T15:16:00;1.35;;;0.88;;
52248;SDS011;38541;48.130;8.378;2022-10-17T15:18:26;2.13;;;1.38;;
52248;SDS011;38541;48.130;8.378;2022-10-17T15:20:53;3.97;;;0.90;;
52248;SDS011;38541;48.130;8.378;2022-10-17T15:23:31;6.30;;;1.15;;
52248;SDS011;38541;48.130;8.378;2022-10-17T15:25:58;1.10;;;0.85;;
52248;SDS011;38541;48.130;8.378;2022-10-17T15:28:24;1.63;;;0.90;;
52248;SDS011;38541;48.130;8.378;2022-10-17T15:30:52;0.77;;;0.70;;
52248;SDS011;38541;48.130;8.378;2022-10-17T15:33:18;1.27;;;0.85;;
52248;SDS011;38541;48.130;8.378;2022-10-17T15:35:45;1.60;;;0.80;;
52248;SDS011;38541;48.130;8.378;2022-10-17T15:38:12;2.60;;;1.20;;
52248;SDS011;38541;48.130;8.378;2022-10-17T15:40:43;2.60;;;0.80;;
52248;SDS011;38541;48.130;8.378;2022-10-17T15:43:09;0.70;;;0.70;;
52248;SDS011;38541;48.130;8.378;2022-10-17T15:45:35;1.67;;;0.80;;
52248;SDS011;38541;48.130;8.378;2022-10-17T15:48:04;0.80;;;0.80;;
52248;SDS011;38541;48.130;8.378;2022-10-17T15:50:32;0.57;;;0.57;;
52248;SDS011;38541;48.130;8.378;2022-10-17T15:52:58;1.40;;;0.70;;
52248;SDS011;38541;48.130;8.378;2022-10-17T15:55:25;0.85;;;0.80;;
52248;SDS011;38541;48.130;8.378;2022-10-17T15:57:52;1.13;;;0.80;;
52248;SDS011;38541;48.130;8.378;2022-10-17T16:00:19;3.78;;;1.13;;
52248;SDS011;38541;48.130;8.378;2022-10-17T16:02:47;1.45;;;0.90;;
52248;SDS011;38541;48.130;8.378;2022-10-17T16:05:16;0.80;;;0.80;;
52248;SDS011;38541;48.130;8.378;2022-10-17T16:07:48;1.10;;;0.90;;
52248;SDS011;38541;48.130;8.378;2022-10-17T16:10:15;1.05;;;0.93;;
52248;SDS011;38541;48.130;8.378;2022-10-17T16:12:42;1.58;;;0.93;;
52248;SDS011;38541;48.130;8.378;2022-10-17T16:15:13;2.88;;;1.67;;
52248;SDS011;38541;48.130;8.378;2022-10-17T16:22:39;1.92;;;0.77;;
52248;SDS011;38541;48.130;8.378;2022-10-17T16:25:18;1.00;;;0.98;;
52248;SDS011;38541;48.130;8.378;2022-10-17T16:27:47;1.08;;;1.05;;
52248;SDS011;38541;48.130;8.378;2022-10-17T16:30:15;3.40;;;1.48;;
52248;SDS011;38541;48.130;8.378;2022-10-17T16:32:42;2.30;;;1.20;;
52248;SDS011;38541;48.130;8.378;2022-10-17T16:35:10;3.08;;;1.27;;
52248;SDS011;38541;48.130;8.378;2022-10-17T16:37:41;2.92;;;1.30;;
52248;SDS011;38541;48.130;8.378;2022-10-17T16:40:08;1.30;;;1.20;;
52248;SDS011;38541;48.130;8.378;2022-10-17T16:42:35;3.00;;;1.15;;
52248;SDS011;38541;48.130;8.378;2022-10-17T16:45:01;1.05;;;1.02;;
52248;SDS011;38541;48.130;8.378;2022-10-17T16:47:28;3.90;;;1.90;;
52248;SDS011;38541;48.130;8.378;2022-10-17T16:49:55;5.13;;;2.70;;
52248;SDS011;38541;48.130;8.378;2022-10-17T16:52:21;2.80;;;2.50;;
52248;SDS011;38541;48.130;8.378;2022-10-17T16:54:48;5.85;;;3.13;;
52248;SDS011;38541;48.130;8.378;2022-10-17T16:57:14;3.40;;;2.40;;
52248;SDS011;38541;48.130;8.378;2022-10-17T16:59:41;1.92;;;1.73;;
52248;SDS011;38541;48.130;8.378;2022-10-17T17:02:08;2.50;;;2.30;;
52248;SDS011;38541;48.130;8.378;2022-10-17T17:04:37;2.33;;;2.10;;
52248;SDS011;38541;48.130;8.378;2022-10-17T17:07:03;3.20;;;1.65;;
52248;SDS011;38541;48.130;8.378;2022-10-17T17:09:30;3.53;;;2.08;;
52248;SDS011;38541;48.130;8.378;2022-10-17T17:11:56;4.20;;;2.10;;
52248;SDS011;38541;48.130;8.378;2022-10-17T17:14:23;2.58;;;2.35;;
52248;SDS011;38541;48.130;8.378;2022-10-17T17:16:49;4.30;;;2.72;;
52248;SDS011;38541;48.130;8.378;2022-10-17T17:19:16;3.33;;;3.03;;
52248;SDS011;38541;48.130;8.378;2022-10-17T17:21:42;2.22;;;1.92;;
52248;SDS011;38541;48.130;8.378;2022-10-17T17:24:16;2.42;;;2.20;;
52248;SDS011;38541;48.130;8.378;2022-10-17T17:26:49;5.43;;;4.93;;
52248;SDS011;38541;48.130;8.378;2022-10-17T17:29:17;5.82;;;3.85;;
52248;SDS011;38541;48.130;8.378;2022-10-17T17:31:43;3.05;;;2.17;;